sensor_id;sensor_type;location;lat;lon;timestamp;P1;durP1;ratioP1;P2;durP2;ratioP2
35961;SDS011;22044;48.298;10.008;2023-03-01T00:00:22;24.73;;;15.07;;
35961;SDS011;22044;48.298;10.008;2023-03-01T00:03:08;23.73;;;15.23;;
35961;SDS011;22044;48.298;10.008;2023-03-01T00:05:53;21.27;;;14.90;;
35961;SDS011;22044;48.298;10.008;2023-03-01T00:08:39;22.30;;;14.80;;
35961;SDS011;22044;48.298;10.008;2023-03-01T00:11:25;23.93;;;14.70;;
35961;SDS011;22044;48.298;10.008;2023-03-01T00:14:13;20.73;;;15.30;;
35961;SDS011;22044;48.298;10.008;2023-03-01T00:16:59;22.90;;;15.00;;
35961;SDS011;22044;48.298;10.008;2023-03-01T00:19:45;22.90;;;15.00;;
35961;SDS011;22044;48.298;10.008;2023-03-01T00:22:31;22.73;;;14.80;;
35961;SDS011;22044;48.298;10.008;2023-03-01T00:25:17;22.37;;;15.50;;
35961;SDS011;22044;48.298;10.008;2023-03-01T00:28:02;20.97;;;14.80;;
35961;SDS011;22044;48.298;10.008;2023-03-01T00:30:49;22.73;;;15.80;;
35961;SDS011;22044;48.298;10.008;2023-03-01T00:33:35;25.97;;;16.27;;
35961;SDS011;22044;48.298;10.008;2023-03-01T00:36:23;24.27;;;16.23;;
35961;SDS011;22044;48.298;10.008;2023-03-01T00:39:11;32.83;;;15.73;;
35961;SDS011;22044;48.298;10.008;2023-03-01T00:41:58;24.33;;;16.47;;
35961;SDS011;22044;48.298;10.008;2023-03-01T00:44:44;22.27;;;15.37;;
35961;SDS011;22044;48.298;10.008;2023-03-01T00:47:31;22.07;;;15.17;;
35961;SDS011;22044;48.298;10.008;2023-03-01T00:50:17;24.10;;;15.63;;
35961;SDS011;22044;48.298;10.008;2023-03-01T00:53:03;25.40;;;17.67;;
35961;SDS011;22044;48.298;10.008;2023-03-01T00:55:49;23.00;;;15.93;;
35961;SDS011;22044;48.298;10.008;2023-03-01T00:58:36;23.90;;;16.70;;
35961;SDS011;22044;48.298;10.008;2023-03-01T01:01:23;26.87;;;16.53;;
35961;SDS011;22044;48.298;10.008;2023-03-01T01:04:12;24.63;;;16.83;;
35961;SDS011;22044;48.298;10.008;2023-03-01T01:06:58;25.60;;;17.50;;
35961;SDS011;22044;48.298;10.008;2023-03-01T01:09:43;29.40;;;17.37;;
35961;SDS011;22044;48.298;10.008;2023-03-01T01:12:29;22.97;;;16.53;;
35961;SDS011;22044;48.298;10.008;2023-03-01T01:15:14;28.60;;;17.60;;
35961;SDS011;22044;48.298;10.008;2023-03-01T01:18:00;28.13;;;16.73;;
35961;SDS011;22044;48.298;10.008;2023-03-01T01:20:47;24.63;;;15.87;;
35961;SDS011;22044;48.298;10.008;2023-03-01T01:23:32;25.63;;;16.20;;
35961;SDS011;22044;48.298;10.008;2023-03-01T01:26:19;24.50;;;16.37;;
35961;SDS011;22044;48.298;10.008;2023-03-01T01:29:07;25.57;;;17.10;;
35961;SDS011;22044;48.298;10.008;2023-03-01T01:31:53;29.70;;;17.67;;
35961;SDS011;22044;48.298;10.008;2023-03-01T01:34:40;25.73;;;17.43;;
35961;SDS011;22044;48.298;10.008;2023-03-01T01:37:27;24.30;;;17.37;;
35961;SDS011;22044;48.298;10.008;2023-03-01T01:40:15;27.17;;;17.40;;
35961;SDS011;22044;48.298;10.008;2023-03-01T01:43:00;30.77;;;18.73;;
35961;SDS011;22044;48.298;10.008;2023-03-01T01:45:46;27.33;;;18.23;;
35961;SDS011;22044;48.298;10.008;2023-03-01T01:48:34;23.77;;;16.73;;
35961;SDS011;22044;48.298;10.008;2023-03-01T01:51:25;27.43;;;17.47;;
35961;SDS011;22044;48.298;10.008;2023-03-01T01:54:15;28.00;;;17.00;;
35961;SDS011;22044;48.298;10.008;2023-03-01T01:57:06;26.27;;;17.07;;
35961;SDS011;22044;48.298;10.008;2023-03-01T01:59:57;27.20;;;17.37;;
35961;SDS011;22044;48.298;10.008;2023-03-01T02:02:57;29.10;;;18.00;;
35961;SDS011;22044;48.298;10.008;2023-03-01T02:05:47;24.87;;;16.40;;
35961;SDS011;22044;48.298;10.008;2023-03-01T02:08:39;26.10;;;17.77;;
35961;SDS011;22044;48.298;10.008;2023-03-01T02:11:28;30.23;;;18.37;;
35961;SDS011;22044;48.298;10.008;2023-03-01T02:14:16;28.17;;;18.37;;
35961;SDS011;22044;48.298;10.008;2023-03-01T02:17:02;26.37;;;17.70;;
35961;SDS011;22044;48.298;10.008;2023-03-01T02:19:51;26.83;;;17.83;;
35961;SDS011;22044;48.298;10.008;2023-03-01T02:22:50;27.27;;;18.40;;
35961;SDS011;22044;48.298;10.008;2023-03-01T02:25:41;25.43;;;18.17;;
35961;SDS011;22044;48.298;10.008;2023-03-01T02:28:33;29.87;;;18.60;;
35961;SDS011;22044;48.298;10.008;2023-03-01T02:31:20;29.87;;;17.87;;
35961;SDS011;22044;48.298;10.008;2023-03-01T02:34:24;28.40;;;18.57;;
35961;SDS011;22044;48.298;10.008;2023-03-01T02:37:12;33.13;;;19.43;;
35961;SDS011;22044;48.298;10.008;2023-03-01T02:40:05;27.03;;;17.87;;
35961;SDS011;22044;48.298;10.008;2023-03-01T02:42:56;27.80;;;17.67;;
35961;SDS011;22044;48.298;10.008;2023-03-01T02:45:48;32.10;;;18.67;;
35961;SDS011;22044;48.298;10.008;2023-03-01T02:48:41;28.33;;;22.47;;
35961;SDS011;22044;48.298;10.008;2023-03-01T02:51:35;31.10;;;20.20;;
35961;SDS011;22044;48.298;10.008;2023-03-01T02:54:31;27.07;;;17.83;;
35961;SDS011;22044;48.298;10.008;2023-03-01T02:57:24;30.70;;;19.00;;
35961;SDS011;22044;48.298;10.008;2023-03-01T03:00:11;30.90;;;19.13;;
35961;SDS011;22044;48.298;10.008;2023-03-01T03:03:04;29.10;;;18.70;;
35961;SDS011;22044;48.298;10.008;2023-03-01T03:05:50;28.17;;;18.07;;
35961;SDS011;22044;48.298;10.008;2023-03-01T03:08:36;26.40;;;17.97;;
35961;SDS011;22044;48.298;10.008;2023-03-01T03:11:22;32.67;;;19.83;;
35961;SDS011;22044;48.298;10.008;2023-03-01T03:14:08;27.43;;;18.50;;
35961;SDS011;22044;48.298;10.008;2023-03-01T03:16:56;28.57;;;18.07;;
35961;SDS011;22044;48.298;10.008;2023-03-01T03:19:43;28.67;;;18.23;;
35961;SDS011;22044;48.298;10.008;2023-03-01T03:22:29;27.73;;;18.93;;
35961;SDS011;22044;48.298;10.008;2023-03-01T03:25:17;28.50;;;18.37;;
35961;SDS011;22044;48.298;10.008;2023-03-01T03:28:04;30.63;;;17.73;;
35961;SDS011;22044;48.298;10.008;2023-03-01T03:30:53;29.03;;;18.83;;
35961;SDS011;22044;48.298;10.008;2023-03-01T03:33:38;30.73;;;19.00;;
35961;SDS011;22044;48.298;10.008;2023-03-01T03:36:25;28.67;;;18.60;;
35961;SDS011;22044;48.298;10.008;2023-03-01T03:39:11;29.90;;;18.80;;
35961;SDS011;22044;48.298;10.008;2023-03-01T03:41:56;27.50;;;18.60;;
35961;SDS011;22044;48.298;10.008;2023-03-01T03:44:42;29.70;;;19.53;;
35961;SDS011;22044;48.298;10.008;2023-03-01T03:47:27;28.87;;;19.47;;
35961;SDS011;22044;48.298;10.008;2023-03-01T03:50:14;29.47;;;18.63;;
35961;SDS011;22044;48.298;10.008;2023-03-01T03:53:02;29.40;;;18.27;;
35961;SDS011;22044;48.298;10.008;2023-03-01T03:55:50;26.23;;;18.97;;
35961;SDS011;22044;48.298;10.008;2023-03-01T03:58:36;28.30;;;18.90;;
35961;SDS011;22044;48.298;10.008;2023-03-01T04:01:21;29.73;;;18.47;;
35961;SDS011;22044;48.298;10.008;2023-03-01T04:04:07;27.47;;;18.83;;
35961;SDS011;22044;48.298;10.008;2023-03-01T04:06:53;30.83;;;19.50;;
35961;SDS011;22044;48.298;10.008;2023-03-01T04:09:40;26.40;;;18.73;;
35961;SDS011;22044;48.298;10.008;2023-03-01T04:12:26;27.43;;;18.90;;
35961;SDS011;22044;48.298;10.008;2023-03-01T04:15:11;28.00;;;18.30;;
35961;SDS011;22044;48.298;10.008;2023-03-01T04:18:00;27.47;;;18.07;;
35961;SDS011;22044;48.298;10.008;2023-03-01T04:20:46;31.17;;;18.07;;
35961;SDS011;22044;48.298;10.008;2023-03-01T04:23:32;26.93;;;17.70;;
35961;SDS011;22044;48.298;10.008;2023-03-01T04:26:19;31.10;;;18.47;;
35961;SDS011;22044;48.298;10.008;2023-03-01T04:29:05;27.43;;;17.70;;
35961;SDS011;22044;48.298;10.008;2023-03-01T04:31:50;29.90;;;18.90;;
35961;SDS011;22044;48.298;10.008;2023-03-01T04:34:36;27.93;;;17.67;;
35961;SDS011;22044;48.298;10.008;2023-03-01T04:37:22;26.67;;;18.63;;
35961;SDS011;22044;48.298;10.008;2023-03-01T04:40:11;27.77;;;18.30;;
35961;SDS011;22044;48.298;10.008;2023-03-01T04:43:01;29.47;;;18.47;;
35961;SDS011;22044;48.298;10.008;2023-03-01T04:45:47;27.90;;;17.83;;
35961;SDS011;22044;48.298;10.008;2023-03-01T04:48:34;27.73;;;18.27;;
35961;SDS011;22044;48.298;10.008;2023-03-01T04:51:20;27.93;;;18.73;;
35961;SDS011;22044;48.298;10.008;2023-03-01T04:54:05;27.23;;;18.03;;
35961;SDS011;22044;48.298;10.008;2023-03-01T04:56:53;31.40;;;19.40;;
35961;SDS011;22044;48.298;10.008;2023-03-01T04:59:40;27.00;;;18.23;;
35961;SDS011;22044;48.298;10.008;2023-03-01T05:02:26;30.57;;;18.73;;
35961;SDS011;22044;48.298;10.008;2023-03-01T05:05:11;27.80;;;18.40;;
35961;SDS011;22044;48.298;10.008;2023-03-01T05:07:58;25.70;;;17.47;;
35961;SDS011;22044;48.298;10.008;2023-03-01T05:10:46;31.03;;;19.10;;
35961;SDS011;22044;48.298;10.008;2023-03-01T05:13:34;29.47;;;18.20;;
35961;SDS011;22044;48.298;10.008;2023-03-01T05:16:21;31.33;;;17.87;;
35961;SDS011;22044;48.298;10.008;2023-03-01T05:19:06;30.23;;;19.67;;
35961;SDS011;22044;48.298;10.008;2023-03-01T05:21:59;30.43;;;19.73;;
35961;SDS011;22044;48.298;10.008;2023-03-01T05:24:48;28.00;;;18.13;;
35961;SDS011;22044;48.298;10.008;2023-03-01T05:27:34;28.80;;;18.90;;
35961;SDS011;22044;48.298;10.008;2023-03-01T05:30:20;31.53;;;19.10;;
35961;SDS011;22044;48.298;10.008;2023-03-01T05:33:07;32.97;;;18.70;;
35961;SDS011;22044;48.298;10.008;2023-03-01T05:35:59;28.37;;;18.73;;
35961;SDS011;22044;48.298;10.008;2023-03-01T05:38:45;29.17;;;18.77;;
35961;SDS011;22044;48.298;10.008;2023-03-01T05:41:31;28.50;;;18.40;;
35961;SDS011;22044;48.298;10.008;2023-03-01T05:44:16;27.20;;;18.23;;
35961;SDS011;22044;48.298;10.008;2023-03-01T05:47:02;31.63;;;19.83;;
35961;SDS011;22044;48.298;10.008;2023-03-01T05:49:49;26.67;;;17.80;;
35961;SDS011;22044;48.298;10.008;2023-03-01T05:52:34;26.57;;;17.73;;
35961;SDS011;22044;48.298;10.008;2023-03-01T05:55:20;28.27;;;18.40;;
35961;SDS011;22044;48.298;10.008;2023-03-01T05:58:07;29.63;;;19.73;;
35961;SDS011;22044;48.298;10.008;2023-03-01T06:00:55;31.47;;;19.47;;
35961;SDS011;22044;48.298;10.008;2023-03-01T06:03:41;31.47;;;19.30;;
35961;SDS011;22044;48.298;10.008;2023-03-01T06:06:28;29.00;;;19.43;;
35961;SDS011;22044;48.298;10.008;2023-03-01T06:09:14;30.83;;;19.17;;
35961;SDS011;22044;48.298;10.008;2023-03-01T06:12:00;30.70;;;18.93;;
35961;SDS011;22044;48.298;10.008;2023-03-01T06:14:46;31.73;;;18.30;;
35961;SDS011;22044;48.298;10.008;2023-03-01T06:17:32;42.33;;;20.90;;
35961;SDS011;22044;48.298;10.008;2023-03-01T06:20:21;31.40;;;19.17;;
35961;SDS011;22044;48.298;10.008;2023-03-01T06:23:09;30.87;;;19.10;;
35961;SDS011;22044;48.298;10.008;2023-03-01T06:25:55;32.17;;;19.53;;
35961;SDS011;22044;48.298;10.008;2023-03-01T06:28:41;28.33;;;19.10;;
35961;SDS011;22044;48.298;10.008;2023-03-01T06:31:28;30.53;;;19.43;;
35961;SDS011;22044;48.298;10.008;2023-03-01T06:34:13;28.20;;;19.47;;
35961;SDS011;22044;48.298;10.008;2023-03-01T06:36:59;30.00;;;19.93;;
35961;SDS011;22044;48.298;10.008;2023-03-01T06:39:50;26.07;;;18.30;;
35961;SDS011;22044;48.298;10.008;2023-03-01T06:42:35;31.17;;;20.33;;
35961;SDS011;22044;48.298;10.008;2023-03-01T06:45:21;32.97;;;20.60;;
35961;SDS011;22044;48.298;10.008;2023-03-01T06:48:07;29.87;;;19.90;;
35961;SDS011;22044;48.298;10.008;2023-03-01T06:50:52;30.73;;;19.57;;
35961;SDS011;22044;48.298;10.008;2023-03-01T06:53:38;34.17;;;18.97;;
35961;SDS011;22044;48.298;10.008;2023-03-01T06:56:25;29.70;;;18.33;;
35961;SDS011;22044;48.298;10.008;2023-03-01T06:59:10;30.20;;;19.27;;
35961;SDS011;22044;48.298;10.008;2023-03-01T07:01:56;29.63;;;19.20;;
35961;SDS011;22044;48.298;10.008;2023-03-01T07:04:42;31.43;;;19.30;;
35961;SDS011;22044;48.298;10.008;2023-03-01T07:07:27;31.50;;;19.00;;
35961;SDS011;22044;48.298;10.008;2023-03-01T07:10:13;29.93;;;19.60;;
35961;SDS011;22044;48.298;10.008;2023-03-01T07:13:00;38.10;;;19.57;;
35961;SDS011;22044;48.298;10.008;2023-03-01T07:15:45;32.80;;;20.00;;
35961;SDS011;22044;48.298;10.008;2023-03-01T07:18:30;32.07;;;19.37;;
35961;SDS011;22044;48.298;10.008;2023-03-01T07:21:16;32.63;;;19.17;;
35961;SDS011;22044;48.298;10.008;2023-03-01T07:24:02;35.73;;;20.93;;
35961;SDS011;22044;48.298;10.008;2023-03-01T07:26:48;33.53;;;21.13;;
35961;SDS011;22044;48.298;10.008;2023-03-01T07:29:35;31.17;;;19.10;;
35961;SDS011;22044;48.298;10.008;2023-03-01T07:32:21;28.67;;;19.50;;
35961;SDS011;22044;48.298;10.008;2023-03-01T07:35:07;33.27;;;20.57;;
35961;SDS011;22044;48.298;10.008;2023-03-01T07:37:53;31.43;;;19.80;;
35961;SDS011;22044;48.298;10.008;2023-03-01T07:40:39;32.07;;;19.47;;
35961;SDS011;22044;48.298;10.008;2023-03-01T07:43:24;32.23;;;21.27;;
35961;SDS011;22044;48.298;10.008;2023-03-01T07:46:11;32.60;;;17.80;;
35961;SDS011;22044;48.298;10.008;2023-03-01T07:48:57;30.50;;;19.70;;
35961;SDS011;22044;48.298;10.008;2023-03-01T07:51:42;33.60;;;20.33;;
35961;SDS011;22044;48.298;10.008;2023-03-01T07:54:28;31.50;;;19.73;;
35961;SDS011;22044;48.298;10.008;2023-03-01T07:57:13;32.50;;;20.07;;
35961;SDS011;22044;48.298;10.008;2023-03-01T07:59:59;32.97;;;20.40;;
35961;SDS011;22044;48.298;10.008;2023-03-01T08:02:46;29.67;;;19.67;;
35961;SDS011;22044;48.298;10.008;2023-03-01T08:05:31;33.17;;;20.77;;
35961;SDS011;22044;48.298;10.008;2023-03-01T08:08:17;33.20;;;20.40;;
35961;SDS011;22044;48.298;10.008;2023-03-01T08:11:03;28.83;;;18.40;;
35961;SDS011;22044;48.298;10.008;2023-03-01T08:13:50;32.37;;;19.83;;
35961;SDS011;22044;48.298;10.008;2023-03-01T08:16:36;33.63;;;20.47;;
35961;SDS011;22044;48.298;10.008;2023-03-01T08:19:23;30.37;;;19.13;;
35961;SDS011;22044;48.298;10.008;2023-03-01T08:22:09;30.93;;;18.77;;
35961;SDS011;22044;48.298;10.008;2023-03-01T08:24:54;30.63;;;20.13;;
35961;SDS011;22044;48.298;10.008;2023-03-01T08:27:40;36.27;;;19.80;;
35961;SDS011;22044;48.298;10.008;2023-03-01T08:30:26;28.47;;;18.57;;
35961;SDS011;22044;48.298;10.008;2023-03-01T08:33:11;30.70;;;19.13;;
35961;SDS011;22044;48.298;10.008;2023-03-01T08:36:05;30.70;;;18.70;;
35961;SDS011;22044;48.298;10.008;2023-03-01T08:38:52;32.00;;;19.67;;
35961;SDS011;22044;48.298;10.008;2023-03-01T08:41:37;34.27;;;20.70;;
35961;SDS011;22044;48.298;10.008;2023-03-01T08:44:23;30.60;;;18.90;;
35961;SDS011;22044;48.298;10.008;2023-03-01T08:47:08;32.10;;;19.97;;
35961;SDS011;22044;48.298;10.008;2023-03-01T08:49:54;34.13;;;19.77;;
35961;SDS011;22044;48.298;10.008;2023-03-01T08:52:41;29.87;;;18.93;;
35961;SDS011;22044;48.298;10.008;2023-03-01T08:55:27;30.67;;;20.23;;
35961;SDS011;22044;48.298;10.008;2023-03-01T08:58:13;31.20;;;19.80;;
35961;SDS011;22044;48.298;10.008;2023-03-01T09:00:58;34.27;;;19.70;;
35961;SDS011;22044;48.298;10.008;2023-03-01T09:03:44;32.67;;;20.67;;
35961;SDS011;22044;48.298;10.008;2023-03-01T09:06:30;34.10;;;21.13;;
35961;SDS011;22044;48.298;10.008;2023-03-01T09:09:18;34.40;;;19.83;;
35961;SDS011;22044;48.298;10.008;2023-03-01T09:12:04;32.37;;;19.53;;
35961;SDS011;22044;48.298;10.008;2023-03-01T09:14:50;29.57;;;18.50;;
35961;SDS011;22044;48.298;10.008;2023-03-01T09:17:36;33.67;;;18.93;;
35961;SDS011;22044;48.298;10.008;2023-03-01T09:20:21;33.37;;;20.33;;
35961;SDS011;22044;48.298;10.008;2023-03-01T09:23:07;31.27;;;19.63;;
35961;SDS011;22044;48.298;10.008;2023-03-01T09:25:54;31.10;;;17.33;;
35961;SDS011;22044;48.298;10.008;2023-03-01T09:28:39;30.37;;;19.20;;
35961;SDS011;22044;48.298;10.008;2023-03-01T09:31:25;35.07;;;20.00;;
35961;SDS011;22044;48.298;10.008;2023-03-01T09:34:11;32.23;;;19.67;;
35961;SDS011;22044;48.298;10.008;2023-03-01T09:36:58;29.43;;;19.67;;
35961;SDS011;22044;48.298;10.008;2023-03-01T09:39:46;31.87;;;19.93;;
35961;SDS011;22044;48.298;10.008;2023-03-01T09:42:33;29.87;;;19.53;;
35961;SDS011;22044;48.298;10.008;2023-03-01T09:45:23;33.43;;;20.17;;
35961;SDS011;22044;48.298;10.008;2023-03-01T09:48:15;32.60;;;20.73;;
35961;SDS011;22044;48.298;10.008;2023-03-01T09:51:03;31.97;;;19.33;;
35961;SDS011;22044;48.298;10.008;2023-03-01T09:53:54;31.47;;;20.27;;
35961;SDS011;22044;48.298;10.008;2023-03-01T09:56:44;32.10;;;20.07;;
35961;SDS011;22044;48.298;10.008;2023-03-01T09:59:40;30.27;;;18.50;;
35961;SDS011;22044;48.298;10.008;2023-03-01T10:02:38;32.30;;;20.40;;
35961;SDS011;22044;48.298;10.008;2023-03-01T10:05:34;30.70;;;18.47;;
35961;SDS011;22044;48.298;10.008;2023-03-01T10:08:29;33.00;;;18.30;;
35961;SDS011;22044;48.298;10.008;2023-03-01T10:11:23;34.60;;;20.73;;
35961;SDS011;22044;48.298;10.008;2023-03-01T10:14:15;34.73;;;20.60;;
35961;SDS011;22044;48.298;10.008;2023-03-01T10:17:12;32.80;;;20.13;;
35961;SDS011;22044;48.298;10.008;2023-03-01T10:20:20;34.80;;;19.37;;
35961;SDS011;22044;48.298;10.008;2023-03-01T10:23:07;33.07;;;20.50;;
35961;SDS011;22044;48.298;10.008;2023-03-01T10:25:57;40.07;;;18.70;;
35961;SDS011;22044;48.298;10.008;2023-03-01T10:28:54;34.00;;;20.17;;
35961;SDS011;22044;48.298;10.008;2023-03-01T10:31:47;30.00;;;19.03;;
35961;SDS011;22044;48.298;10.008;2023-03-01T10:34:35;32.37;;;18.13;;
35961;SDS011;22044;48.298;10.008;2023-03-01T10:37:21;34.00;;;19.47;;
35961;SDS011;22044;48.298;10.008;2023-03-01T10:40:09;31.50;;;19.33;;
35961;SDS011;22044;48.298;10.008;2023-03-01T10:42:57;29.93;;;17.03;;
35961;SDS011;22044;48.298;10.008;2023-03-01T10:45:45;27.77;;;18.53;;
35961;SDS011;22044;48.298;10.008;2023-03-01T10:48:31;32.13;;;19.97;;
35961;SDS011;22044;48.298;10.008;2023-03-01T10:51:18;28.57;;;18.23;;
35961;SDS011;22044;48.298;10.008;2023-03-01T10:54:04;25.37;;;17.00;;
35961;SDS011;22044;48.298;10.008;2023-03-01T10:57:00;31.37;;;18.63;;
35961;SDS011;22044;48.298;10.008;2023-03-01T10:59:48;34.23;;;20.50;;
35961;SDS011;22044;48.298;10.008;2023-03-01T11:02:49;32.67;;;19.00;;
35961;SDS011;22044;48.298;10.008;2023-03-01T11:05:57;27.90;;;16.53;;
35961;SDS011;22044;48.298;10.008;2023-03-01T11:08:47;31.93;;;19.80;;
35961;SDS011;22044;48.298;10.008;2023-03-01T11:11:34;35.03;;;20.50;;
35961;SDS011;22044;48.298;10.008;2023-03-01T11:14:20;31.87;;;19.80;;
35961;SDS011;22044;48.298;10.008;2023-03-01T11:17:11;25.20;;;15.87;;
35961;SDS011;22044;48.298;10.008;2023-03-01T11:20:00;30.80;;;20.27;;
35961;SDS011;22044;48.298;10.008;2023-03-01T11:22:52;33.83;;;20.73;;
35961;SDS011;22044;48.298;10.008;2023-03-01T11:25:41;33.57;;;19.70;;
35961;SDS011;22044;48.298;10.008;2023-03-01T11:28:28;36.00;;;21.13;;
35961;SDS011;22044;48.298;10.008;2023-03-01T11:31:14;29.90;;;19.57;;
35961;SDS011;22044;48.298;10.008;2023-03-01T11:34:05;32.57;;;21.60;;
35961;SDS011;22044;48.298;10.008;2023-03-01T11:36:58;36.27;;;21.23;;
35961;SDS011;22044;48.298;10.008;2023-03-01T11:39:51;30.70;;;20.57;;
35961;SDS011;22044;48.298;10.008;2023-03-01T11:42:48;32.90;;;20.60;;
35961;SDS011;22044;48.298;10.008;2023-03-01T11:45:45;33.73;;;20.73;;
35961;SDS011;22044;48.298;10.008;2023-03-01T11:48:46;29.93;;;18.90;;
35961;SDS011;22044;48.298;10.008;2023-03-01T11:51:45;29.13;;;20.07;;
35961;SDS011;22044;48.298;10.008;2023-03-01T11:54:42;29.83;;;20.63;;
35961;SDS011;22044;48.298;10.008;2023-03-01T11:57:43;30.77;;;20.43;;
35961;SDS011;22044;48.298;10.008;2023-03-01T12:00:52;30.27;;;20.30;;
35961;SDS011;22044;48.298;10.008;2023-03-01T12:03:59;31.53;;;19.97;;
35961;SDS011;22044;48.298;10.008;2023-03-01T12:07:04;30.87;;;19.27;;
35961;SDS011;22044;48.298;10.008;2023-03-01T12:09:59;27.63;;;18.73;;
35961;SDS011;22044;48.298;10.008;2023-03-01T12:13:06;33.00;;;21.27;;
35961;SDS011;22044;48.298;10.008;2023-03-01T12:19:29;32.00;;;20.87;;
35961;SDS011;22044;48.298;10.008;2023-03-01T12:22:29;27.53;;;18.73;;
35961;SDS011;22044;48.298;10.008;2023-03-01T12:25:18;31.93;;;21.10;;
35961;SDS011;22044;48.298;10.008;2023-03-01T12:28:18;28.57;;;20.03;;
35961;SDS011;22044;48.298;10.008;2023-03-01T12:31:32;28.10;;;19.50;;
35961;SDS011;22044;48.298;10.008;2023-03-01T12:37:54;27.87;;;20.03;;
35961;SDS011;22044;48.298;10.008;2023-03-01T12:40:50;28.47;;;19.87;;
35961;SDS011;22044;48.298;10.008;2023-03-01T12:43:54;30.17;;;19.73;;
35961;SDS011;22044;48.298;10.008;2023-03-01T12:46:52;29.93;;;20.63;;
35961;SDS011;22044;48.298;10.008;2023-03-01T12:50:04;29.77;;;20.67;;
35961;SDS011;22044;48.298;10.008;2023-03-01T12:52:57;32.50;;;20.43;;
35961;SDS011;22044;48.298;10.008;2023-03-01T12:55:43;26.70;;;19.37;;
35961;SDS011;22044;48.298;10.008;2023-03-01T12:58:29;28.50;;;19.33;;
35961;SDS011;22044;48.298;10.008;2023-03-01T13:01:25;27.03;;;17.83;;
35961;SDS011;22044;48.298;10.008;2023-03-01T13:04:26;27.00;;;17.67;;
35961;SDS011;22044;48.298;10.008;2023-03-01T13:07:24;26.33;;;19.17;;
35961;SDS011;22044;48.298;10.008;2023-03-01T13:10:17;28.20;;;19.20;;
35961;SDS011;22044;48.298;10.008;2023-03-01T13:13:19;30.93;;;18.67;;
35961;SDS011;22044;48.298;10.008;2023-03-01T13:19:26;27.30;;;18.37;;
35961;SDS011;22044;48.298;10.008;2023-03-01T13:22:27;28.77;;;19.10;;
35961;SDS011;22044;48.298;10.008;2023-03-01T13:25:17;27.67;;;19.43;;
35961;SDS011;22044;48.298;10.008;2023-03-01T13:34:56;28.27;;;19.50;;
35961;SDS011;22044;48.298;10.008;2023-03-01T13:37:43;28.23;;;19.27;;
35961;SDS011;22044;48.298;10.008;2023-03-01T13:43:43;27.60;;;19.10;;
35961;SDS011;22044;48.298;10.008;2023-03-01T13:46:31;30.17;;;20.33;;
35961;SDS011;22044;48.298;10.008;2023-03-01T13:49:20;28.47;;;21.07;;
35961;SDS011;22044;48.298;10.008;2023-03-01T13:52:15;27.30;;;18.73;;
35961;SDS011;22044;48.298;10.008;2023-03-01T13:55:24;26.13;;;18.83;;
35961;SDS011;22044;48.298;10.008;2023-03-01T13:58:15;28.53;;;19.57;;
35961;SDS011;22044;48.298;10.008;2023-03-01T14:01:07;28.13;;;21.13;;
35961;SDS011;22044;48.298;10.008;2023-03-01T14:04:17;29.50;;;19.30;;
35961;SDS011;22044;48.298;10.008;2023-03-01T14:07:10;29.53;;;20.23;;
35961;SDS011;22044;48.298;10.008;2023-03-01T14:09:58;27.63;;;19.83;;
35961;SDS011;22044;48.298;10.008;2023-03-01T14:12:46;26.67;;;18.93;;
35961;SDS011;22044;48.298;10.008;2023-03-01T14:15:37;28.20;;;19.70;;
35961;SDS011;22044;48.298;10.008;2023-03-01T14:18:29;27.83;;;20.00;;
35961;SDS011;22044;48.298;10.008;2023-03-01T14:21:22;28.10;;;19.07;;
35961;SDS011;22044;48.298;10.008;2023-03-01T14:24:15;26.13;;;19.40;;
35961;SDS011;22044;48.298;10.008;2023-03-01T14:27:03;30.53;;;19.53;;
35961;SDS011;22044;48.298;10.008;2023-03-01T14:29:55;28.10;;;19.43;;
35961;SDS011;22044;48.298;10.008;2023-03-01T14:32:42;26.73;;;18.40;;
35961;SDS011;22044;48.298;10.008;2023-03-01T14:35:28;24.83;;;18.73;;
35961;SDS011;22044;48.298;10.008;2023-03-01T14:38:21;26.03;;;18.23;;
35961;SDS011;22044;48.298;10.008;2023-03-01T14:41:07;26.63;;;18.00;;
35961;SDS011;22044;48.298;10.008;2023-03-01T14:43:55;25.13;;;17.73;;
35961;SDS011;22044;48.298;10.008;2023-03-01T14:46:43;28.20;;;18.23;;
35961;SDS011;22044;48.298;10.008;2023-03-01T14:49:30;25.30;;;17.57;;
35961;SDS011;22044;48.298;10.008;2023-03-01T14:52:17;28.83;;;19.10;;
35961;SDS011;22044;48.298;10.008;2023-03-01T14:55:12;24.60;;;17.37;;
35961;SDS011;22044;48.298;10.008;2023-03-01T14:58:02;29.40;;;18.83;;
35961;SDS011;22044;48.298;10.008;2023-03-01T15:00:50;25.43;;;18.17;;
35961;SDS011;22044;48.298;10.008;2023-03-01T15:03:40;26.40;;;18.07;;
35961;SDS011;22044;48.298;10.008;2023-03-01T15:06:28;23.40;;;16.60;;
35961;SDS011;22044;48.298;10.008;2023-03-01T15:09:14;21.90;;;17.13;;
35961;SDS011;22044;48.298;10.008;2023-03-01T15:12:02;24.43;;;17.60;;
35961;SDS011;22044;48.298;10.008;2023-03-01T15:15:20;26.63;;;18.40;;
35961;SDS011;22044;48.298;10.008;2023-03-01T15:18:15;23.37;;;16.00;;
35961;SDS011;22044;48.298;10.008;2023-03-01T15:21:07;24.43;;;16.83;;
35961;SDS011;22044;48.298;10.008;2023-03-01T15:23:56;25.67;;;17.37;;
35961;SDS011;22044;48.298;10.008;2023-03-01T15:26:47;21.17;;;17.00;;
35961;SDS011;22044;48.298;10.008;2023-03-01T15:29:39;24.53;;;17.67;;
35961;SDS011;22044;48.298;10.008;2023-03-01T15:32:33;24.87;;;17.73;;
35961;SDS011;22044;48.298;10.008;2023-03-01T15:35:33;23.13;;;16.20;;
35961;SDS011;22044;48.298;10.008;2023-03-01T15:38:30;26.93;;;17.13;;
35961;SDS011;22044;48.298;10.008;2023-03-01T15:41:22;24.63;;;17.07;;
35961;SDS011;22044;48.298;10.008;2023-03-01T15:44:16;25.40;;;16.97;;
35961;SDS011;22044;48.298;10.008;2023-03-01T15:47:23;29.97;;;16.37;;
35961;SDS011;22044;48.298;10.008;2023-03-01T15:50:15;22.70;;;16.33;;
35961;SDS011;22044;48.298;10.008;2023-03-01T15:53:05;23.77;;;16.00;;
35961;SDS011;22044;48.298;10.008;2023-03-01T15:55:52;22.70;;;16.17;;
35961;SDS011;22044;48.298;10.008;2023-03-01T15:58:38;22.90;;;16.83;;
35961;SDS011;22044;48.298;10.008;2023-03-01T16:01:23;22.50;;;17.13;;
35961;SDS011;22044;48.298;10.008;2023-03-01T16:04:11;25.10;;;16.70;;
35961;SDS011;22044;48.298;10.008;2023-03-01T16:07:03;21.73;;;16.27;;
35961;SDS011;22044;48.298;10.008;2023-03-01T16:09:50;23.23;;;16.63;;
35961;SDS011;22044;48.298;10.008;2023-03-01T16:12:35;24.07;;;16.60;;
35961;SDS011;22044;48.298;10.008;2023-03-01T16:15:23;22.83;;;17.13;;
35961;SDS011;22044;48.298;10.008;2023-03-01T16:18:10;22.77;;;15.97;;
35961;SDS011;22044;48.298;10.008;2023-03-01T16:20:58;24.20;;;16.63;;
35961;SDS011;22044;48.298;10.008;2023-03-01T16:23:44;20.57;;;15.43;;
35961;SDS011;22044;48.298;10.008;2023-03-01T16:26:30;23.93;;;16.43;;
35961;SDS011;22044;48.298;10.008;2023-03-01T16:29:15;24.33;;;16.93;;
35961;SDS011;22044;48.298;10.008;2023-03-01T16:32:01;22.13;;;16.17;;
35961;SDS011;22044;48.298;10.008;2023-03-01T16:34:47;19.97;;;15.27;;